Time;durP1;ratioP1;P1;durP2;ratioP2;P2;SDS_P1;SDS_P2;PMS_P1;PMS_P2;Temp;Humidity;BMP_temperature;BMP_pressure;BME280_temperature;BME280_humidity;BME280_pressure;Samples;Min_cycle;Max_cycle;Signal;HPM_P1;HPM_P2
2023/01/22 00:01:24;;;;;;;63.17;30.67;;;-0.90;99.90;;;;;;6306533;22;38335;-74
2023/01/22 00:03:52;;;;;;;60.40;28.47;;;-1.00;99.90;;;;;;6312954;22;38093;-75
2023/01/22 00:06:18;;;;;;;64.40;30.50;;;-0.90;99.90;;;;;;6313598;22;36656;-74
2023/01/22 00:08:45;;;;;;;72.13;32.07;;;-1.00;99.90;;;;;;6317719;22;39537;-75
2023/01/22 00:11:11;;;;;;;66.57;30.83;;;-1.00;99.90;;;;;;6315107;22;37196;-75
2023/01/22 00:13:37;;;;;;;62.07;30.80;;;-1.00;99.90;;;;;;6316175;22;39245;-75
2023/01/22 00:16:03;;;;;;;64.43;29.63;;;-0.90;99.90;;;;;;6309487;22;36937;-75
2023/01/22 00:18:29;;;;;;;58.37;30.80;;;-0.90;99.90;;;;;;6306768;22;41451;-75
2023/01/22 00:20:56;;;;;;;59.37;28.70;;;-0.90;99.90;;;;;;6315406;22;39198;-75
2023/01/22 00:23:22;;;;;;;57.07;30.30;;;-0.90;99.90;;;;;;6306338;22;37141;-75
2023/01/22 00:25:49;;;;;;;58.80;30.93;;;-0.90;99.90;;;;;;6304611;22;37428;-74
2023/01/22 00:28:16;;;;;;;62.90;30.93;;;-0.90;99.90;;;;;;6303114;22;38366;-75
2023/01/22 00:30:42;;;;;;;56.70;28.90;;;-0.90;99.90;;;;;;6304259;22;37415;-74
2023/01/22 00:33:08;;;;;;;61.87;30.20;;;-0.90;99.90;;;;;;6299989;22;38086;-75
2023/01/22 00:35:34;;;;;;;56.53;29.40;;;-0.90;99.90;;;;;;6303234;22;36377;-75
2023/01/22 00:38:00;;;;;;;55.83;29.30;;;-0.80;99.90;;;;;;6303202;22;37564;-75
2023/01/22 00:40:26;;;;;;;56.07;29.00;;;-0.80;99.90;;;;;;6297474;22;47576;-75
2023/01/22 00:42:52;;;;;;;51.70;27.33;;;-0.70;99.90;;;;;;6305414;22;38465;-74
2023/01/22 00:45:18;;;;;;;55.33;27.70;;;-0.60;99.90;;;;;;6301569;22;36902;-74
2023/01/22 00:47:44;;;;;;;52.70;27.40;;;-0.60;99.90;;;;;;6302325;22;38404;-75
2023/01/22 00:50:10;;;;;;;59.23;29.87;;;-0.60;99.90;;;;;;6301842;22;37930;-75
2023/01/22 00:52:36;;;;;;;57.83;29.70;;;-0.60;99.90;;;;;;6303767;22;36938;-75
2023/01/22 00:55:04;;;;;;;55.90;29.37;;;-0.60;99.90;;;;;;6305053;22;36619;-75
2023/01/22 00:57:30;;;;;;;53.27;28.50;;;-0.50;99.90;;;;;;6303728;22;47715;-74
2023/01/22 00:59:56;;;;;;;58.57;28.87;;;-0.40;99.90;;;;;;6306986;22;37673;-75
2023/01/22 01:02:22;;;;;;;53.23;26.77;;;-0.40;99.90;;;;;;6305017;22;37408;-75
2023/01/22 01:04:48;;;;;;;51.57;26.90;;;-0.40;99.90;;;;;;6304616;22;36082;-75
2023/01/22 01:07:14;;;;;;;53.40;29.13;;;-0.50;99.90;;;;;;6299267;22;38867;-75
2023/01/22 01:09:40;;;;;;;55.10;28.20;;;-0.40;99.90;;;;;;6302408;22;37358;-75
2023/01/22 01:12:08;;;;;;;55.80;29.13;;;-0.30;99.90;;;;;;6302636;22;37796;-74
2023/01/22 01:14:34;;;;;;;50.20;28.47;;;-0.20;99.90;;;;;;6301152;22;36469;-75
2023/01/22 01:17:00;;;;;;;59.77;29.47;;;-0.10;99.90;;;;;;6306955;22;39487;-74
2023/01/22 01:19:26;;;;;;;48.43;27.27;;;0.00;99.90;;;;;;6299839;22;37294;-74
2023/01/22 01:21:52;;;;;;;50.80;27.30;;;0.10;99.90;;;;;;6301630;22;37103;-74
2023/01/22 01:24:18;;;;;;;54.20;27.17;;;0.10;99.90;;;;;;6304986;22;37633;-73
2023/01/22 01:26:44;;;;;;;53.47;28.70;;;0.20;99.90;;;;;;6302225;22;37607;-73
2023/01/22 01:29:11;;;;;;;52.27;27.93;;;0.30;99.90;;;;;;6301002;22;37482;-74
2023/01/22 01:31:37;;;;;;;52.07;27.07;;;0.30;99.90;;;;;;6304940;22;38564;-73
2023/01/22 01:34:03;;;;;;;45.33;27.77;;;0.30;99.90;;;;;;6304901;22;37356;-74
2023/01/22 01:36:30;;;;;;;45.47;25.67;;;0.40;99.90;;;;;;6301384;22;38259;-74
2023/01/22 01:38:56;;;;;;;42.80;24.47;;;0.40;99.90;;;;;;6300527;22;37259;-74
2023/01/22 01:41:25;;;;;;;39.13;24.00;;;0.40;99.90;;;;;;6303023;22;37236;-74
2023/01/22 01:44:10;;;;;;;41.87;24.47;;;0.40;99.90;;;;;;6302766;22;37269;-74
2023/01/22 01:46:50;;;;;;;43.90;25.90;;;0.50;99.90;;;;;;6292532;22;48649;-73
2023/01/22 01:49:27;;;;;;;41.33;24.50;;;0.50;99.90;;;;;;6303662;22;38714;-75
2023/01/22 01:52:00;;;;;;;46.60;26.23;;;0.60;99.90;;;;;;6302723;22;37318;-74
2023/01/22 01:54:28;;;;;;;40.93;22.80;;;0.60;99.90;;;;;;6302135;22;40526;-74
2023/01/22 01:57:11;;;;;;;39.40;23.20;;;0.70;99.90;;;;;;6304573;22;39887;-74
2023/01/22 01:59:38;;;;;;;38.17;23.37;;;0.70;99.90;;;;;;6298118;22;47343;-73
2023/01/22 02:02:05;;;;;;;39.73;24.33;;;0.80;99.90;;;;;;6257788;22;37391;-82
2023/01/22 02:04:31;;;;;;;35.20;22.47;;;0.80;99.90;;;;;;6358194;22;37806;-83
2023/01/22 02:06:57;;;;;;;35.87;23.23;;;0.80;99.90;;;;;;6336625;22;37788;-83
2023/01/22 02:09:23;;;;;;;38.00;23.63;;;0.80;99.90;;;;;;6358116;22;38589;-82
2023/01/22 02:11:50;;;;;;;36.53;23.10;;;0.90;99.90;;;;;;6362107;22;39161;-82
2023/01/22 02:14:21;;;;;;;38.30;22.53;;;0.90;99.90;;;;;;6362075;22;37588;-82
2023/01/22 02:16:47;;;;;;;36.33;22.33;;;0.90;99.90;;;;;;6364228;22;39814;-82
2023/01/22 02:19:13;;;;;;;33.47;21.93;;;1.00;99.90;;;;;;6363288;22;38969;-82
2023/01/22 02:21:44;;;;;;;36.07;22.03;;;1.00;99.90;;;;;;6366561;22;38177;-80
2023/01/22 02:24:13;;;;;;;36.63;21.93;;;1.00;99.90;;;;;;6361919;22;38038;-81
2023/01/22 02:26:42;;;;;;;34.37;22.13;;;1.00;99.90;;;;;;6365143;22;37734;-82
2023/01/22 02:29:10;;;;;;;37.60;21.50;;;1.00;99.90;;;;;;6364182;22;39800;-82
2023/01/22 02:31:37;;;;;;;30.73;20.67;;;1.00;99.90;;;;;;6364906;22;39658;-82
2023/01/22 02:34:04;;;;;;;30.33;19.83;;;1.00;99.90;;;;;;6361642;22;38518;-83
2023/01/22 02:36:32;;;;;;;31.33;19.83;;;1.00;99.90;;;;;;6332474;22;38630;-82
2023/01/22 02:38:59;;;;;;;28.73;18.90;;;1.10;99.90;;;;;;6334685;22;39506;-83
2023/01/22 02:41:26;;;;;;;30.17;17.90;;;1.20;99.90;;;;;;6357155;22;36937;-82
2023/01/22 02:43:52;;;;;;;31.97;17.77;;;1.20;99.90;;;;;;6357933;22;38434;-82
2023/01/22 02:46:18;;;;;;;27.23;17.60;;;1.20;99.90;;;;;;6348040;22;37396;-82
2023/01/22 02:48:45;;;;;;;27.53;17.70;;;1.30;99.90;;;;;;6322826;22;37257;-82
2023/01/22 02:51:12;;;;;;;27.13;17.23;;;1.30;99.90;;;;;;6319470;22;37417;-82
2023/01/22 02:53:38;;;;;;;26.23;17.67;;;1.30;99.90;;;;;;6343809;22;36159;-82
2023/01/22 02:56:06;;;;;;;25.57;17.47;;;1.20;99.90;;;;;;6345077;22;39282;-82
2023/01/22 02:58:33;;;;;;;26.77;17.77;;;1.30;99.90;;;;;;6318133;22;37485;-82
2023/01/22 03:01:17;;;;;;;25.47;16.67;;;1.30;99.90;;;;;;6315522;22;37837;-82
2023/01/22 03:03:49;;;;;;;27.83;16.10;;;1.40;99.90;;;;;;6342944;22;48892;-82
2023/01/22 03:06:20;;;;;;;21.33;13.13;;;1.40;99.90;;;;;;6343147;22;38882;-82
2023/01/22 03:08:47;;;;;;;29.27;17.10;;;1.40;99.90;;;;;;6334653;22;39779;-81
2023/01/22 03:11:14;;;;;;;28.37;16.90;;;1.50;99.90;;;;;;6342435;22;37899;-81
2023/01/22 03:21:53;;;;;;;23.43;15.70;;;1.60;99.90;;;;;;6338864;22;40115;-81
2023/01/22 03:24:19;;;;;;;23.27;15.50;;;1.50;99.90;;;;;;6337276;22;36407;-81
2023/01/22 03:26:46;;;;;;;23.03;14.57;;;1.50;99.90;;;;;;6310523;22;37419;-81
2023/01/22 03:29:12;;;;;;;19.23;14.33;;;1.60;99.90;;;;;;6336985;22;38332;-82
2023/01/22 03:31:38;;;;;;;23.37;14.97;;;1.60;99.90;;;;;;6339387;22;37816;-81
2023/01/22 03:34:04;;;;;;;21.67;15.20;;;1.60;99.90;;;;;;6339743;22;37381;-81
2023/01/22 03:36:31;;;;;;;26.23;14.73;;;1.60;99.90;;;;;;6308280;22;39218;-81
2023/01/22 03:38:57;;;;;;;20.97;14.40;;;1.60;99.90;;;;;;6334580;22;37421;-81
2023/01/22 03:41:23;;;;;;;24.07;14.73;;;1.60;99.90;;;;;;6322085;22;39019;-81
2023/01/22 03:43:49;;;;;;;22.93;15.23;;;1.60;99.90;;;;;;6310603;22;37107;-81
2023/01/22 03:46:17;;;;;;;21.47;14.67;;;1.60;99.90;;;;;;6308065;22;37805;-80
2023/01/22 03:48:44;;;;;;;20.00;14.93;;;1.60;99.90;;;;;;6335789;22;38744;-81
2023/01/22 03:51:13;;;;;;;23.20;15.43;;;1.60;99.90;;;;;;6308415;22;38071;-81
2023/01/22 03:53:40;;;;;;;23.73;15.60;;;1.60;99.90;;;;;;6311696;22;36634;-81
2023/01/22 03:56:10;;;;;;;23.27;15.13;;;1.60;99.90;;;;;;6334053;22;38746;-81
2023/01/22 03:58:37;;;;;;;21.80;14.57;;;1.60;99.90;;;;;;6306834;22;37437;-81
2023/01/22 04:01:08;;;;;;;21.17;15.63;;;1.60;99.90;;;;;;6336238;22;38148;-81
2023/01/22 04:03:34;;;;;;;25.73;16.70;;;1.60;99.90;;;;;;6310221;22;37416;-81
2023/01/22 04:06:01;;;;;;;23.40;16.07;;;1.60;99.90;;;;;;6310039;22;38026;-81
2023/01/22 04:08:29;;;;;;;21.07;15.37;;;1.60;99.90;;;;;;6337999;22;47416;-81
2023/01/22 04:10:56;;;;;;;19.83;14.53;;;1.60;99.90;;;;;;6337295;22;37251;-81
2023/01/22 04:13:24;;;;;;;22.40;15.00;;;1.60;99.90;;;;;;6308431;22;37458;-81
2023/01/22 04:15:50;;;;;;;23.03;14.60;;;1.60;99.90;;;;;;6337066;22;37756;-81
2023/01/22 04:18:16;;;;;;;24.00;15.50;;;1.60;99.90;;;;;;6335123;22;39022;-81
2023/01/22 04:20:43;;;;;;;20.93;14.23;;;1.60;99.90;;;;;;6313200;22;38138;-81
2023/01/22 04:23:09;;;;;;;21.47;14.20;;;1.60;99.90;;;;;;6310358;22;37771;-82
2023/01/22 04:25:35;;;;;;;22.20;14.40;;;1.50;99.90;;;;;;6341287;22;39053;-82
2023/01/22 04:28:02;;;;;;;22.83;14.60;;;1.50;99.90;;;;;;6311443;22;36922;-81
2023/01/22 04:30:28;;;;;;;20.47;13.73;;;1.50;99.90;;;;;;6315939;22;48772;-81
2023/01/22 04:32:55;;;;;;;22.07;14.30;;;1.40;99.90;;;;;;6341089;22;37341;-81
2023/01/22 04:35:21;;;;;;;21.47;15.10;;;1.40;99.90;;;;;;6308909;22;38923;-81
2023/01/22 04:37:47;;;;;;;23.83;15.37;;;1.30;99.90;;;;;;6340162;22;38037;-81
2023/01/22 04:40:14;;;;;;;23.30;15.13;;;1.30;99.90;;;;;;6337880;22;37330;-81
2023/01/22 04:42:40;;;;;;;21.77;15.23;;;1.30;99.90;;;;;;6338603;22;36218;-81
2023/01/22 04:45:07;;;;;;;21.73;13.57;;;1.20;99.90;;;;;;6335980;22;39966;-81
2023/01/22 04:47:33;;;;;;;24.93;15.37;;;1.20;99.90;;;;;;6340891;22;39140;-81
2023/01/22 04:49:59;;;;;;;24.40;14.90;;;1.20;99.90;;;;;;6313166;22;37101;-81
2023/01/22 04:52:25;;;;;;;20.67;13.87;;;1.20;99.90;;;;;;6336586;22;37451;-82
2023/01/22 04:54:52;;;;;;;19.80;13.93;;;1.20;99.90;;;;;;6340724;22;37480;-81
2023/01/22 04:57:18;;;;;;;22.30;15.07;;;1.20;99.90;;;;;;6314193;22;37271;-79
2023/01/22 04:59:44;;;;;;;23.90;14.40;;;1.30;99.90;;;;;;6340923;22;37788;-78
2023/01/22 05:02:10;;;;;;;24.03;13.63;;;1.40;99.90;;;;;;6285907;22;36430;-78
2023/01/22 05:04:36;;;;;;;18.43;13.17;;;1.40;99.90;;;;;;6344473;22;38691;-79
2023/01/22 05:07:02;;;;;;;22.63;13.83;;;1.40;99.90;;;;;;6344392;22;38503;-79
2023/01/22 05:09:28;;;;;;;23.37;13.67;;;1.30;99.90;;;;;;6343314;22;38008;-79
2023/01/22 05:11:55;;;;;;;20.23;14.03;;;1.30;99.90;;;;;;6319326;22;36110;-78
2023/01/22 05:14:21;;;;;;;19.83;13.07;;;1.20;99.90;;;;;;6339275;22;38708;-79
2023/01/22 05:16:49;;;;;;;19.83;13.63;;;1.10;99.90;;;;;;6318231;22;38570;-79
2023/01/22 05:19:15;;;;;;;19.53;13.23;;;1.10;99.90;;;;;;6316722;22;38056;-82
2023/01/22 05:21:41;;;;;;;17.53;12.50;;;1.10;99.90;;;;;;6340303;22;37720;-81
2023/01/22 05:24:08;;;;;;;17.63;11.93;;;1.10;99.90;;;;;;6340097;22;38308;-82
2023/01/22 05:26:34;;;;;;;22.23;13.23;;;1.00;99.90;;;;;;6339304;22;37066;-81
2023/01/22 05:29:00;;;;;;;21.70;13.90;;;1.00;99.90;;;;;;6314229;22;39089;-82
2023/01/22 05:31:26;;;;;;;22.13;14.30;;;0.90;99.90;;;;;;6342250;22;47621;-81
2023/01/22 05:33:52;;;;;;;19.80;13.90;;;1.00;99.90;;;;;;6315106;22;37717;-81
2023/01/22 05:36:18;;;;;;;22.63;13.73;;;1.00;99.90;;;;;;6342328;22;37004;-81
2023/01/22 05:38:45;;;;;;;22.93;14.83;;;1.10;99.90;;;;;;6345534;22;38208;-81
2023/01/22 05:41:11;;;;;;;20.47;14.17;;;1.10;99.90;;;;;;6337406;22;36805;-81
2023/01/22 05:43:38;;;;;;;20.03;13.23;;;1.10;99.90;;;;;;6342569;22;38409;-82
2023/01/22 05:46:04;;;;;;;20.80;13.73;;;1.10;99.90;;;;;;6316694;22;38100;-81
2023/01/22 05:48:31;;;;;;;22.60;14.83;;;1.20;99.90;;;;;;6346210;22;38251;-81
2023/01/22 05:51:05;;;;;;;25.73;15.20;;;1.30;99.90;;;;;;6316506;22;36655;-81
2023/01/22 05:53:32;;;;;;;20.13;14.03;;;1.30;99.90;;;;;;6338236;22;48330;-81
2023/01/22 05:56:03;;;;;;;19.27;12.77;;;1.30;99.90;;;;;;6342190;22;37134;-81
2023/01/22 05:58:31;;;;;;;22.67;14.70;;;1.40;99.90;;;;;;6331131;22;47136;-81
2023/01/22 06:00:57;;;;;;;21.57;13.50;;;1.40;99.90;;;;;;6316078;22;36106;-81
2023/01/22 06:03:24;;;;;;;20.60;14.57;;;1.50;99.90;;;;;;6339779;22;37351;-81
2023/01/22 06:06:05;;;;;;;18.87;13.63;;;1.50;99.90;;;;;;6315336;22;37144;-81
2023/01/22 06:08:31;;;;;;;19.80;13.57;;;1.60;99.90;;;;;;6301449;22;47540;-81
2023/01/22 06:11:02;;;;;;;18.17;12.90;;;1.60;99.90;;;;;;6339472;22;36211;-81
2023/01/22 06:13:29;;;;;;;26.13;13.57;;;1.70;99.90;;;;;;6329021;22;47203;-81
2023/01/22 06:15:55;;;;;;;20.10;13.07;;;1.70;99.90;;;;;;6311184;22;38377;-81
2023/01/22 06:18:23;;;;;;;21.13;12.70;;;1.80;99.90;;;;;;6337941;22;38362;-81
2023/01/22 06:20:49;;;;;;;22.13;12.60;;;1.80;99.90;;;;;;6309485;22;36273;-81
2023/01/22 06:23:16;;;;;;;17.93;12.43;;;1.90;99.90;;;;;;6307389;22;37451;-80
2023/01/22 06:25:42;;;;;;;16.93;11.57;;;1.90;99.90;;;;;;6339418;22;38346;-80
2023/01/22 06:28:08;;;;;;;19.73;13.43;;;2.00;99.90;;;;;;6336499;22;37950;-81
2023/01/22 06:30:35;;;;;;;15.40;11.70;;;2.00;99.90;;;;;;6334286;22;36094;-80
2023/01/22 06:33:02;;;;;;;18.87;12.73;;;2.00;99.90;;;;;;6335501;22;39459;-80
2023/01/22 06:35:28;;;;;;;18.17;12.97;;;2.00;99.90;;;;;;6308686;22;37539;-80
2023/01/22 06:37:54;;;;;;;17.23;12.50;;;2.00;99.90;;;;;;6336748;22;38006;-80
2023/01/22 06:40:20;;;;;;;16.73;11.37;;;2.00;99.90;;;;;;6334471;22;37557;-81
2023/01/22 06:42:46;;;;;;;19.53;12.87;;;2.00;99.90;;;;;;6333139;22;39011;-80
2023/01/22 06:45:12;;;;;;;18.80;12.93;;;2.10;99.90;;;;;;6331756;22;39298;-80
2023/01/22 06:47:43;;;;;;;16.90;11.33;;;2.10;99.90;;;;;;6335808;22;39367;-80
2023/01/22 06:50:10;;;;;;;17.23;11.63;;;2.10;99.90;;;;;;6305638;22;36811;-80
2023/01/22 06:52:37;;;;;;;18.10;11.20;;;2.10;99.90;;;;;;6305548;22;38970;-80
2023/01/22 06:55:03;;;;;;;19.27;12.53;;;2.20;99.90;;;;;;6334256;22;38506;-79
2023/01/22 06:57:29;;;;;;;14.80;10.53;;;2.10;99.90;;;;;;6306141;22;38011;-80
2023/01/22 06:59:55;;;;;;;19.87;11.10;;;2.20;99.90;;;;;;6332316;22;37377;-79
2023/01/22 07:02:22;;;;;;;17.80;10.83;;;2.20;99.90;;;;;;6332022;22;38481;-80
2023/01/22 07:04:48;;;;;;;15.33;10.07;;;2.20;99.90;;;;;;6332906;22;37291;-79
2023/01/22 07:07:14;;;;;;;24.77;10.57;;;2.20;99.90;;;;;;6332953;22;38413;-79
2023/01/22 07:09:40;;;;;;;14.77;9.07;;;2.20;99.90;;;;;;6334713;22;37937;-79
2023/01/22 07:12:06;;;;;;;16.30;10.17;;;2.20;99.90;;;;;;6307017;22;38911;-79
2023/01/22 07:14:32;;;;;;;19.37;9.53;;;2.20;99.90;;;;;;6334238;22;39160;-79
2023/01/22 07:16:58;;;;;;;16.73;8.80;;;2.20;99.90;;;;;;6334009;22;39277;-79
2023/01/22 07:19:24;;;;;;;14.90;8.87;;;2.20;99.90;;;;;;6298148;22;36493;-79
2023/01/22 07:21:50;;;;;;;13.33;9.10;;;2.20;99.90;;;;;;6306658;22;37956;-79
2023/01/22 07:24:17;;;;;;;16.87;9.43;;;2.20;99.90;;;;;;6332084;22;38368;-79
2023/01/22 07:26:43;;;;;;;13.30;8.60;;;2.20;99.90;;;;;;6306745;22;37951;-79
2023/01/22 07:29:09;;;;;;;14.57;8.73;;;2.20;99.90;;;;;;6306612;22;36139;-80
2023/01/22 07:31:35;;;;;;;14.50;8.97;;;2.20;99.90;;;;;;6332843;22;38875;-79
2023/01/22 07:34:02;;;;;;;15.23;9.60;;;2.20;99.90;;;;;;6308687;22;37920;-79
2023/01/22 07:36:28;;;;;;;12.67;8.60;;;2.20;99.90;;;;;;6308440;22;47053;-79
2023/01/22 07:38:54;;;;;;;14.23;8.80;;;2.20;99.90;;;;;;6311587;22;36373;-79
2023/01/22 07:41:21;;;;;;;12.57;8.07;;;2.20;99.90;;;;;;6307668;22;39508;-80
2023/01/22 07:43:48;;;;;;;13.20;8.17;;;2.20;99.90;;;;;;6311255;22;38124;-79
2023/01/22 07:46:14;;;;;;;12.83;8.47;;;2.20;99.90;;;;;;6306221;22;37479;-80
2023/01/22 07:48:40;;;;;;;17.37;9.50;;;2.20;99.90;;;;;;6309085;22;36124;-79
2023/01/22 07:51:06;;;;;;;16.67;8.67;;;2.20;99.90;;;;;;6306337;22;38574;-79
2023/01/22 07:53:33;;;;;;;14.70;8.30;;;2.20;99.90;;;;;;6338899;22;38230;-79
2023/01/22 07:56:03;;;;;;;15.00;7.73;;;2.20;99.90;;;;;;6305769;22;38051;-79
2023/01/22 07:58:29;;;;;;;15.57;7.13;;;2.20;99.90;;;;;;6327052;22;47777;-79
2023/01/22 08:00:55;;;;;;;14.03;6.93;;;2.30;99.90;;;;;;6311004;22;37680;-80
2023/01/22 08:03:21;;;;;;;11.53;7.43;;;2.30;99.90;;;;;;6336178;22;38501;-80
2023/01/22 08:05:47;;;;;;;11.67;7.20;;;2.30;99.90;;;;;;6334851;22;37760;-79
2023/01/22 08:08:16;;;;;;;10.70;7.33;;;2.30;99.90;;;;;;6307138;22;35847;-79
2023/01/22 08:10:43;;;;;;;12.13;7.67;;;2.20;99.90;;;;;;6305942;22;37521;-79
2023/01/22 08:13:09;;;;;;;11.17;6.97;;;2.20;99.90;;;;;;6334235;22;38559;-79
2023/01/22 08:15:36;;;;;;;11.13;6.53;;;2.30;99.90;;;;;;6332436;22;37836;-78
2023/01/22 08:18:02;;;;;;;10.40;6.87;;;2.30;99.90;;;;;;6305835;22;35833;-79
2023/01/22 08:20:28;;;;;;;14.67;6.73;;;2.30;99.90;;;;;;6304108;22;38358;-79
2023/01/22 08:22:58;;;;;;;13.57;7.10;;;2.30;99.90;;;;;;6333306;22;38903;-78
2023/01/22 08:25:28;;;;;;;8.97;6.53;;;2.30;99.90;;;;;;6305232;22;37561;-79
2023/01/22 08:27:54;;;;;;;9.93;5.77;;;2.40;99.90;;;;;;6337834;22;37242;-79
2023/01/22 08:30:20;;;;;;;11.07;6.87;;;2.30;99.90;;;;;;6302054;22;39442;-79
2023/01/22 08:32:49;;;;;;;15.70;7.67;;;2.40;99.90;;;;;;6335842;22;38796;-79
2023/01/22 08:35:15;;;;;;;10.93;6.33;;;2.40;99.90;;;;;;6334460;22;39418;-79
2023/01/22 08:37:44;;;;;;;12.17;6.70;;;2.40;99.90;;;;;;6336763;22;36709;-79
2023/01/22 08:40:10;;;;;;;9.70;6.43;;;2.40;99.90;;;;;;6299944;22;37744;-79
2023/01/22 08:42:36;;;;;;;9.80;6.17;;;2.40;99.90;;;;;;6334654;22;39251;-79
2023/01/22 08:45:03;;;;;;;11.20;6.60;;;2.40;99.90;;;;;;6306538;22;37876;-78
2023/01/22 08:47:29;;;;;;;8.90;6.07;;;2.50;99.90;;;;;;6306595;22;36136;-79
2023/01/22 08:49:56;;;;;;;10.43;6.53;;;2.50;99.90;;;;;;6307660;22;37906;-79
2023/01/22 08:52:22;;;;;;;10.77;6.50;;;2.50;99.90;;;;;;6305091;22;37183;-78
2023/01/22 08:54:48;;;;;;;10.60;6.33;;;2.50;99.90;;;;;;6307916;22;38229;-76
2023/01/22 08:57:14;;;;;;;10.73;6.10;;;2.50;99.90;;;;;;6334563;22;37900;-78
2023/01/22 08:59:40;;;;;;;8.50;6.33;;;2.50;99.90;;;;;;6333143;22;38449;-78
2023/01/22 09:02:11;;;;;;;16.40;6.83;;;2.50;99.90;;;;;;6305959;22;36890;-78
2023/01/22 09:04:38;;;;;;;8.97;5.83;;;2.50;99.90;;;;;;6338359;22;38363;-78
2023/01/22 09:07:04;;;;;;;12.07;6.63;;;2.50;99.90;;;;;;6309167;22;37359;-78
2023/01/22 09:09:30;;;;;;;12.50;6.43;;;2.60;99.90;;;;;;6311376;22;38476;-78
2023/01/22 09:11:56;;;;;;;9.87;6.47;;;2.60;99.90;;;;;;6307869;22;37610;-75
2023/01/22 09:14:22;;;;;;;10.27;5.90;;;2.60;99.90;;;;;;6302789;22;36798;-75
2023/01/22 09:16:48;;;;;;;13.93;6.77;;;2.60;99.90;;;;;;6307343;22;35897;-78
2023/01/22 09:19:14;;;;;;;10.53;6.70;;;2.60;99.90;;;;;;6333609;22;38451;-79
2023/01/22 09:21:40;;;;;;;15.00;7.20;;;2.60;99.90;;;;;;6335563;22;38302;-78
2023/01/22 09:24:07;;;;;;;16.50;7.07;;;2.60;99.90;;;;;;6335184;22;37994;-78
2023/01/22 09:26:33;;;;;;;9.83;6.80;;;2.60;99.90;;;;;;6332078;22;37149;-77
2023/01/22 09:29:00;;;;;;;10.57;6.77;;;2.60;99.90;;;;;;6305055;22;37759;-76
2023/01/22 09:31:26;;;;;;;10.07;6.87;;;2.70;99.90;;;;;;6307037;22;38497;-80
2023/01/22 09:33:54;;;;;;;10.60;6.80;;;2.60;99.90;;;;;;6338710;22;38205;-80
2023/01/22 09:36:20;;;;;;;10.93;6.43;;;2.60;99.90;;;;;;6309364;22;36086;-79
2023/01/22 09:38:46;;;;;;;11.20;6.87;;;2.60;99.90;;;;;;6336837;22;38864;-79
2023/01/22 09:41:32;;;;;;;12.30;6.43;;;2.60;99.90;;;;;;6336148;22;38222;-77
2023/01/22 09:44:32;;;;;;;11.10;6.80;;;2.60;99.90;;;;;;6307930;22;38425;-78
2023/01/22 09:47:02;;;;;;;14.27;7.17;;;2.60;99.90;;;;;;6292933;22;47078;-77
2023/01/22 09:49:37;;;;;;;8.80;6.00;;;2.60;99.90;;;;;;6305313;22;47272;-77
2023/01/22 09:52:08;;;;;;;11.80;6.97;;;2.60;99.90;;;;;;6305347;22;37340;-78
2023/01/22 09:54:34;;;;;;;9.67;5.77;;;2.70;99.90;;;;;;6336346;22;37178;-77
2023/01/22 09:57:03;;;;;;;13.17;6.83;;;2.70;99.90;;;;;;6333284;22;37678;-81
2023/01/22 09:59:43;;;;;;;8.70;5.67;;;2.60;99.90;;;;;;6269746;22;47091;-75
2023/01/22 10:02:33;;;;;;;11.77;5.83;;;2.60;99.90;;;;;;6341503;22;38423;-76
2023/01/22 10:05:14;;;;;;;9.13;5.90;;;2.50;99.90;;;;;;6321320;22;36777;-76
2023/01/22 10:07:51;;;;;;;10.50;5.67;;;2.60;99.90;;;;;;6311164;22;47131;-77
2023/01/22 10:10:28;;;;;;;8.13;5.80;;;2.50;99.90;;;;;;6340775;22;38969;-77
2023/01/22 10:13:00;;;;;;;9.70;6.17;;;2.60;99.90;;;;;;6321690;22;37199;-77
2023/01/22 10:15:26;;;;;;;10.88;6.18;;;2.70;99.90;;;;;;6320110;22;46358;-76
2023/01/22 10:17:55;;;;;;;10.03;5.80;;;2.70;99.90;;;;;;6350749;22;37735;-77
2023/01/22 10:20:23;;;;;;;9.60;6.00;;;2.60;99.90;;;;;;6314841;22;38697;-76
2023/01/22 10:22:55;;;;;;;11.63;6.90;;;2.60;99.90;;;;;;6346939;22;38882;-76
2023/01/22 10:25:21;;;;;;;9.65;7.15;;;2.60;99.90;;;;;;6315515;22;39504;-77
2023/01/22 10:27:58;;;;;;;12.27;6.50;;;2.50;99.90;;;;;;6346214;22;37318;-77
2023/01/22 10:30:26;;;;;;;12.97;6.40;;;2.50;99.90;;;;;;6342898;22;38933;-77
2023/01/22 10:33:04;;;;;;;8.30;5.60;;;2.50;99.90;;;;;;6304586;22;37136;-78
2023/01/22 10:35:40;;;;;;;10.73;6.27;;;2.60;99.90;;;;;;6329962;22;47881;-78
2023/01/22 10:38:24;;;;;;;9.77;5.90;;;2.70;99.90;;;;;;6308549;22;36378;-78
2023/01/22 10:40:57;;;;;;;6.97;5.87;;;2.80;99.90;;;;;;6305347;22;39646;-78
2023/01/22 10:43:33;;;;;;;10.75;6.13;;;2.80;99.90;;;;;;6306812;22;38099;-78
2023/01/22 10:46:19;;;;;;;13.13;6.80;;;2.90;99.90;;;;;;6312011;22;36622;-79
2023/01/22 10:48:57;;;;;;;8.83;5.87;;;3.00;99.90;;;;;;6291196;22;47364;-79
2023/01/22 10:51:37;;;;;;;9.27;6.23;;;3.00;99.90;;;;;;6324717;22;38778;-80
2023/01/22 10:54:17;;;;;;;9.93;5.70;;;3.00;99.90;;;;;;6323334;22;37552;-79
2023/01/22 10:56:43;;;;;;;10.27;6.00;;;3.10;99.90;;;;;;6318907;22;37938;-78
2023/01/22 10:59:28;;;;;;;7.83;5.03;;;3.00;99.90;;;;;;6321184;22;36830;-79
2023/01/22 11:01:57;;;;;;;8.33;5.27;;;3.10;99.90;;;;;;6310118;22;38372;-78
2023/01/22 11:04:30;;;;;;;7.70;5.90;;;3.00;99.90;;;;;;6331967;22;39546;-79
2023/01/22 11:07:03;;;;;;;10.15;6.57;;;3.10;99.90;;;;;;6338847;22;37836;-78
2023/01/22 11:09:40;;;;;;;9.63;5.90;;;3.10;99.90;;;;;;6330274;22;48870;-79
2023/01/22 11:12:09;;;;;;;10.07;6.33;;;3.20;99.90;;;;;;6300550;22;37736;-78
2023/01/22 11:14:37;;;;;;;10.53;6.00;;;3.20;99.90;;;;;;6302285;22;37149;-78
2023/01/22 11:17:20;;;;;;;8.83;5.90;;;3.30;99.90;;;;;;6332714;22;38330;-79
2023/01/22 11:20:04;;;;;;;8.07;5.50;;;3.30;99.90;;;;;;6336586;22;36816;-78
2023/01/22 11:22:36;;;;;;;10.43;6.60;;;3.30;99.90;;;;;;6329228;22;48570;-79
2023/01/22 11:25:02;;;;;;;7.67;5.83;;;3.30;99.90;;;;;;6335576;22;37182;-80
2023/01/22 11:27:34;;;;;;;12.37;6.80;;;3.30;99.90;;;;;;6342887;22;37889;-81
2023/01/22 11:30:23;;;;;;;8.57;5.55;;;3.30;99.90;;;;;;6311178;22;36748;-79
2023/01/22 11:32:57;;;;;;;8.87;6.00;;;3.30;99.90;;;;;;6306022;22;47111;-79
2023/01/22 11:35:52;;;;;;;9.20;6.47;;;3.30;99.90;;;;;;6300207;22;40099;-79
2023/01/22 11:38:34;;;;;;;10.00;5.73;;;3.20;99.90;;;;;;6304676;22;38470;-78
2023/01/22 11:41:06;;;;;;;8.85;5.72;;;3.10;99.90;;;;;;6298930;22;36782;-79
2023/01/22 11:43:39;;;;;;;10.20;6.10;;;3.00;99.90;;;;;;6323974;22;47143;-79
2023/01/22 11:46:13;;;;;;;;;;;2.90;99.90;;;;;;6306241;22;38188;-81
2023/01/22 11:48:47;;;;;;;9.97;5.43;;;2.80;99.90;;;;;;6305735;22;38785;-78
2023/01/22 11:51:29;;;;;;;10.67;5.87;;;2.90;99.90;;;;;;6304223;22;37300;-78
2023/01/22 11:54:20;;;;;;;8.20;5.27;;;3.00;99.90;;;;;;6302972;22;39670;-80
2023/01/22 11:57:21;;;;;;;7.50;5.57;;;3.10;99.90;;;;;;6319340;22;47256;-80
2023/01/22 11:59:47;;;;;;;9.43;5.57;;;3.20;99.90;;;;;;6324737;22;48069;-81
2023/01/22 12:02:41;;;;;;;7.83;5.30;;;3.40;99.90;;;;;;6327773;22;36118;-79
2023/01/22 12:05:28;;;;;;;6.77;5.10;;;3.40;99.90;;;;;;6318193;22;37872;-81
2023/01/22 12:08:15;;;;;;;8.70;5.47;;;3.40;99.90;;;;;;6313764;22;38951;-79
2023/01/22 12:11:17;;;;;;;9.13;5.10;;;3.50;99.90;;;;;;6316729;22;47150;-80
2023/01/22 12:14:24;;;;;;;8.90;5.77;;;3.60;99.90;;;;;;6263192;22;46992;-79
2023/01/22 12:16:54;;;;;;;8.07;5.77;;;3.80;99.90;;;;;;6193079;23;47552;-80
2023/01/22 12:19:59;;;;;;;10.23;5.23;;;3.70;99.90;;;;;;6195216;23;37606;-80
2023/01/22 12:22:51;;;;;;;6.87;5.17;;;3.60;99.90;;;;;;6186808;22;50250;-79
2023/01/22 12:25:32;;;;;;;9.82;6.10;;;3.60;99.90;;;;;;6250283;22;36629;-79
2023/01/22 12:28:28;;;;;;;7.27;5.10;;;3.80;99.90;;;;;;6247959;22;38838;-79
2023/01/22 12:31:20;;;;;;;8.97;5.63;;;3.80;99.90;;;;;;6273687;22;47077;-79
2023/01/22 12:33:46;;;;;;;7.90;5.47;;;3.70;99.90;;;;;;6302996;22;47245;-80
2023/01/22 12:36:22;;;;;;;9.73;6.10;;;3.60;99.90;;;;;;6303494;22;38786;-79
2023/01/22 12:39:21;;;;;;;8.90;5.90;;;3.60;99.90;;;;;;6304463;22;39568;-79
2023/01/22 12:42:08;;;;;;;8.63;6.20;;;3.70;99.90;;;;;;6303635;22;46820;-79
2023/01/22 12:44:58;;;;;;;8.70;5.77;;;3.80;99.90;;;;;;6294692;22;47008;-79
2023/01/22 12:47:47;;;;;;;7.70;6.00;;;3.80;99.90;;;;;;6302574;22;36608;-79
2023/01/22 12:50:22;;;;;;;8.77;5.57;;;3.70;99.90;;;;;;6302697;22;40010;-80
2023/01/22 12:53:22;;;;;;;8.97;5.87;;;3.60;99.90;;;;;;6304308;22;39051;-79
2023/01/22 12:56:07;;;;;;;10.87;6.07;;;3.50;99.90;;;;;;6299059;22;47149;-80
2023/01/22 12:58:35;;;;;;;9.00;5.80;;;3.40;99.90;;;;;;6305583;22;48456;-79
2023/01/22 13:01:22;;;;;;;8.07;5.77;;;3.40;99.90;;;;;;6297495;22;37547;-80
2023/01/22 13:04:03;;;;;;;11.43;6.30;;;3.30;99.90;;;;;;6299651;22;39086;-82
2023/01/22 13:06:38;;;;;;;8.70;5.40;;;3.40;99.90;;;;;;6285489;22;48201;-80